Weather History for Anaktuvuk Pass, AK

Change the Weather History Date:

Friday, January 18, 2013

  Actual Average Record
Temperature  
Mean Temperature -20 °F -  
Max Temperature -14 °F -1 °F 19 °F (2002)
Min Temperature -25 °F -13 °F -45 °F (1998)
Degree Days  
Heating Degree Days 84    
Moisture  
Dew Point -27 °F    
Average Humidity 61    
Maximum Humidity 77    
Minimum Humidity 53    
Precipitation  
Precipitation 0.00 in - - ()
Sea Level Pressure  
Sea Level Pressure 30.41 in    
Wind  
Wind Speed 13 mph (NE)    
Max Wind Speed 20 mph    
Max Gust Speed 24 mph    
Visibility 9 miles    
Events      
Averages and records for this station are not official NWS values.
T = Trace of Precipitation, MM = Missing Value Source: NWS Daily Summary

Daily Weather History Graph

Daily Weather History Graph

Search for Another Location

Airport:

Trip Planner

Search our weather history database for the weather conditions in past years. The results will help you decide how hot, cold, wet, or windy it might be!

Date:

Astronomy

Jan. 18, 2013 Rise Set
Actual Time 11:25 AM AKST 3:10 PM AKST
Civil Twilight 9:52 AM AKST 4:43 PM AKST
Nautical Twilight 8:34 AM AKST 6:01 PM AKST
Astronomical Twilight 7:27 AM AKST 7:09 PM AKST
Moon 10:36 AM AKST (1/18) 2:34 AM AKST (1/18)
Length of Visible Light 6h 50m
Length of Day
3h 44m
Waxing Crescent, 49% of the Moon is Illuminated
Jan 18
Waxing Crescent
Jan 18
First Quarter
Jan 26
Full
Feb 3
Last Quarter
Feb 9
New

Hourly Weather History & Observations

Time (AKST) Temp. Windchill Dew Point Humidity Pressure Visibility Wind Dir Wind Speed Gust Speed Precip Events Conditions
12:16 AM -23.8 °F -48.0 °F - N/A% 30.28 in 9.0 mi NNE 12.7 mph 18.4 mph N/A   Partly Cloudy
12:36 AM -23.8 °F -50.7 °F - N/A% 30.28 in 10.0 mi NNE 16.1 mph - N/A   Clear
12:56 AM -20.2 °F -47.5 °F - N/A% 30.28 in 10.0 mi NNE 18.4 mph 21.9 mph N/A   Clear
1:16 AM -20.2 °F -45.2 °F -29.2 °F 63% 30.29 in 10.0 mi NNE 15.0 mph - N/A   Clear
1:36 AM -20.2 °F -47.5 °F - N/A% 30.29 in 10.0 mi NE 18.4 mph - N/A   Clear
1:56 AM -20.2 °F -48.2 °F - N/A% 30.29 in 10.0 mi NE 19.6 mph 24.2 mph N/A   Clear
2:16 AM -20.2 °F -47.5 °F - N/A% 30.30 in 8.0 mi NNE 18.4 mph 24.2 mph N/A   Clear
2:56 AM -18.4 °F -44.5 °F -27.4 °F 63% 30.31 in 7.0 mi NNE 17.3 mph 23.0 mph N/A   Clear
3:36 AM -20.2 °F -45.2 °F - N/A% 30.32 in 10.0 mi NE 15.0 mph 21.9 mph N/A   Clear
3:56 AM -20.2 °F -41.3 °F -29.2 °F 63% 30.33 in 10.0 mi ENE 10.4 mph - N/A   Clear
4:16 AM -18.4 °F -39.1 °F -29.2 °F 58% 30.34 in 10.0 mi NE 10.4 mph 16.1 mph N/A   Clear
4:36 AM -18.4 °F -36.6 °F -27.4 °F 63% 30.35 in 10.0 mi NE 8.1 mph - N/A   Clear
4:56 AM -16.6 °F -32.9 °F -27.4 °F 58% 30.35 in 10.0 mi ENE 6.9 mph - N/A   Clear
5:16 AM -18.4 °F -39.1 °F -27.4 °F 63% 30.35 in 10.0 mi NE 10.4 mph - N/A   Clear
5:36 AM -18.4 °F -37.9 °F -29.2 °F 58% 30.35 in 10.0 mi NE 9.2 mph - N/A   Clear
5:56 AM -16.6 °F -36.8 °F -27.4 °F 58% 30.35 in 10.0 mi ENE 10.4 mph 17.3 mph N/A   Clear
6:16 AM -16.6 °F -39.8 °F -27.4 °F 58% 30.35 in 10.0 mi NE 13.8 mph 18.4 mph N/A   Clear
6:36 AM -18.4 °F -40.2 °F - N/A% 30.36 in 10.0 mi NE 11.5 mph - N/A   Clear
6:56 AM -18.4 °F -36.6 °F -29.2 °F 58% 30.36 in 10.0 mi NNE 8.1 mph - N/A   Mostly Cloudy
7:16 AM -18.4 °F -33.4 °F -29.2 °F 58% 30.37 in 10.0 mi North 5.8 mph - N/A   Overcast
7:36 AM -18.4 °F -36.6 °F -27.4 °F 63% 30.37 in 10.0 mi NNE 8.1 mph - N/A   Overcast
7:56 AM -16.6 °F -36.8 °F -27.4 °F 58% 30.38 in 10.0 mi NE 10.4 mph - N/A   Overcast
8:16 AM -16.6 °F -36.8 °F -25.6 °F 64% 30.38 in 10.0 mi NE 10.4 mph - N/A   Overcast
8:36 AM -16.6 °F -36.8 °F -25.6 °F 64% 30.38 in 10.0 mi ENE 10.4 mph - N/A   Overcast
8:56 AM -14.8 °F -36.6 °F -27.4 °F 53% 30.38 in 10.0 mi ENE 12.7 mph - N/A   Overcast
9:16 AM -14.8 °F -35.6 °F -25.6 °F 58% 30.38 in 10.0 mi ENE 11.5 mph - N/A   Scattered Clouds
9:36 AM -14.8 °F -33.5 °F -25.6 °F 58% 30.38 in 10.0 mi ENE 9.2 mph - N/A   Clear
9:56 AM -14.8 °F -39.1 °F -23.8 °F 64% 30.38 in 10.0 mi NE 16.1 mph - N/A   Clear
10:16 AM -14.8 °F -38.3 °F -25.6 °F 58% 30.38 in 10.0 mi NE 15.0 mph 19.6 mph N/A   Clear
10:36 AM -14.8 °F -39.1 °F -25.6 °F 58% 30.39 in 10.0 mi NE 16.1 mph - N/A   Clear
10:56 AM -14.8 °F -37.5 °F -25.6 °F 58% 30.39 in 10.0 mi ENE 13.8 mph - N/A   Clear
11:16 AM -14.8 °F -39.8 °F -27.4 °F 53% 30.39 in 10.0 mi NE 17.3 mph - N/A   Clear
11:36 AM -16.6 °F -39.8 °F -29.2 °F 53% 30.40 in 10.0 mi ENE 13.8 mph 19.6 mph N/A   Clear
11:56 AM -14.8 °F -39.8 °F -27.4 °F 53% 30.40 in 8.0 mi ENE 17.3 mph 21.9 mph N/A   Clear
12:16 PM -14.8 °F -39.8 °F -23.8 °F 64% 30.41 in 6.0 mi ENE 17.3 mph - N/A   Clear
12:36 PM -16.6 °F -37.9 °F -27.4 °F 58% 30.42 in 9.0 mi NE 11.5 mph 17.3 mph N/A   Clear
12:56 PM -18.4 °F -33.4 °F - N/A% 30.44 in 10.0 mi NE 5.8 mph - N/A   Clear
1:16 PM -18.4 °F -42.9 °F - N/A% 30.43 in 10.0 mi NE 15.0 mph - N/A   Clear
1:36 PM -14.8 °F -36.6 °F -20.2 °F 77% 30.43 in 10.0 mi ENE 12.7 mph - N/A   Clear
1:56 PM -14.8 °F -38.3 °F -25.6 °F 58% 30.43 in 10.0 mi NE 15.0 mph 19.6 mph N/A   Clear
2:16 PM -14.8 °F -38.3 °F -23.8 °F 64% 30.44 in 10.0 mi NE 15.0 mph - N/A   Clear
2:36 PM -16.6 °F -41.4 °F -27.4 °F 58% 30.44 in 6.0 mi NE 16.1 mph 21.9 mph N/A   Clear
2:56 PM -18.4 °F -41.2 °F - N/A% 30.43 in 4.0 mi NNE 12.7 mph - N/A   Clear
3:16 PM -16.6 °F -37.9 °F -25.6 °F 64% 30.44 in 9.0 mi ENE 11.5 mph - N/A   Clear
3:36 PM -16.6 °F -37.9 °F -25.6 °F 64% 30.45 in 6.0 mi NE 11.5 mph - N/A   Clear
3:56 PM -16.6 °F -32.9 °F -25.6 °F 64% 30.46 in 5.0 mi NNE 6.9 mph - N/A   Clear
4:16 PM -16.6 °F -36.8 °F -27.4 °F 58% 30.46 in 5.0 mi ENE 10.4 mph - N/A   Clear
4:36 PM -16.6 °F -36.8 °F -23.8 °F 70% 30.45 in 10.0 mi NNE 10.4 mph - N/A   Clear
4:56 PM -14.8 °F -36.6 °F -25.6 °F 58% 30.45 in 8.0 mi NE 12.7 mph 17.3 mph N/A   Clear
5:16 PM -14.8 °F -36.6 °F -22.0 °F 70% 30.45 in 8.0 mi ENE 12.7 mph - N/A   Clear
5:36 PM -14.8 °F -36.6 °F -25.6 °F 58% 30.46 in 8.0 mi NE 12.7 mph - N/A   Clear
5:56 PM -16.6 °F -37.9 °F -29.2 °F 53% 30.46 in 8.0 mi NNE 11.5 mph - N/A   Clear
6:16 PM -18.4 °F -40.2 °F -29.2 °F 58% 30.46 in 9.0 mi NNE 11.5 mph - N/A   Clear
6:36 PM -18.4 °F -41.2 °F - N/A% 30.46 in 9.0 mi NE 12.7 mph - N/A   Clear
6:56 PM -18.4 °F -42.9 °F -27.4 °F 63% 30.46 in 10.0 mi NNE 15.0 mph - N/A   Clear
7:16 PM -18.4 °F -39.1 °F -29.2 °F 58% 30.47 in 10.0 mi NNE 10.4 mph - N/A   Clear
7:36 PM -20.2 °F -43.4 °F - N/A% 30.47 in 10.0 mi NNE 12.7 mph - N/A   Clear
7:56 PM -18.4 °F -40.2 °F -27.4 °F 63% 30.47 in 10.0 mi North 11.5 mph - N/A   Clear
8:16 PM -18.4 °F -39.1 °F -25.6 °F 70% 30.48 in 10.0 mi NNE 10.4 mph - N/A   Clear
8:36 PM -18.4 °F -36.6 °F -29.2 °F 58% 30.48 in 10.0 mi North 8.1 mph - N/A   Clear
8:56 PM -20.2 °F -40.1 °F - N/A% 30.49 in 10.0 mi North 9.2 mph - N/A   Clear
9:16 PM -20.2 °F -40.1 °F -29.2 °F 63% 30.49 in 10.0 mi NNE 9.2 mph - N/A   Clear
9:36 PM -20.2 °F -40.1 °F -29.2 °F 63% 30.49 in 10.0 mi North 9.2 mph - N/A   Clear
9:56 PM -20.2 °F -41.3 °F - N/A% 30.50 in 10.0 mi NNE 10.4 mph - N/A   Clear
10:16 PM -20.2 °F -42.4 °F - N/A% 30.50 in 10.0 mi North 11.5 mph - N/A   Clear
10:36 PM -23.8 °F -46.9 °F - N/A% 30.50 in 10.0 mi NNE 11.5 mph - N/A   Clear
10:56 PM -20.2 °F -42.4 °F - N/A% 30.50 in 10.0 mi NNE 11.5 mph - N/A   Clear
11:16 PM -23.8 °F -46.9 °F - N/A% 30.50 in 10.0 mi NNE 11.5 mph - N/A   Clear
11:36 PM -25.6 °F -50.2 °F - N/A% 30.50 in 10.0 mi NNE 12.7 mph - N/A   Clear
11:56 PM -25.6 °F -48.0 °F - N/A% 30.50 in 10.0 mi NNE 10.4 mph - N/A   Clear